Time;durP1;ratioP1;P1;durP2;ratioP2;P2;SDS_P1;SDS_P2;PMS_P1;PMS_P2;Temp;Humidity;BMP_temperature;BMP_pressure;BME280_temperature;BME280_humidity;BME280_pressure;Samples;Min_cycle;Max_cycle;Signal;HPM_P1;HPM_P2
2024/01/09 00:01:24;;;;;;;0.90;0.90;;;-3.50;99.90;;;;;;5020566;28;20231;-88
2024/01/09 00:03:51;;;;;;;0.90;0.90;;;-3.40;99.90;;;;;;5021268;28;20208;-86
2024/01/09 00:06:19;;;;;;;0.90;0.90;;;-3.50;99.90;;;;;;5018744;28;20212;-89
2024/01/09 00:08:45;;;;;;;0.90;0.90;;;-3.50;99.90;;;;;;5020441;28;20177;-88
2024/01/09 00:11:14;;;;;;;1.00;1.00;;;-3.50;99.90;;;;;;5019500;28;20318;-89
2024/01/09 00:13:41;;;;;;;1.10;1.10;;;-3.50;99.90;;;;;;5019897;28;20202;-88
2024/01/09 00:16:08;;;;;;;0.90;0.90;;;-3.50;99.90;;;;;;5018912;28;20643;-88
2024/01/09 00:18:35;;;;;;;0.90;0.90;;;-3.60;99.90;;;;;;5019458;28;20200;-87
2024/01/09 00:21:01;;;;;;;1.00;1.00;;;-3.60;99.90;;;;;;5018794;28;20600;-89
2024/01/09 00:23:26;;;;;;;1.00;1.00;;;-3.60;99.90;;;;;;5020350;28;20263;-89
2024/01/09 00:25:53;;;;;;;1.00;1.00;;;-3.60;99.90;;;;;;5018971;28;20192;-89
2024/01/09 00:28:19;;;;;;;1.00;1.00;;;-3.60;99.90;;;;;;5017438;28;20550;-88
2024/01/09 00:30:46;;;;;;;1.00;1.00;;;-3.60;91.20;;;;;;5018760;28;20212;-89
2024/01/09 00:33:12;;;;;;;1.00;1.00;;;-3.70;99.90;;;;;;5019152;28;20169;-88
2024/01/09 00:35:37;;;;;;;0.97;0.97;;;-3.70;75.30;;;;;;5019139;28;20176;-92
2024/01/09 00:38:03;;;;;;;0.90;0.90;;;-3.70;77.30;;;;;;5019648;28;20195;-87
2024/01/09 00:40:29;;;;;;;1.00;1.00;;;-3.70;30.00;;;;;;5019716;28;20177;-89
2024/01/09 00:42:54;;;;;;;1.00;1.00;;;-3.80;23.30;;;;;;5019113;28;20203;-89
2024/01/09 00:45:22;;;;;;;0.90;0.90;;;-3.80;23.00;;;;;;5018994;28;20188;-88
2024/01/09 00:47:47;;;;;;;0.97;0.97;;;-3.80;1.00;;;;;;5019216;28;20194;-88
2024/01/09 00:50:13;;;;;;;0.90;0.90;;;-3.80;4.30;;;;;;5017216;28;20304;-89
2024/01/09 00:52:39;;;;;;;1.00;1.00;;;-3.80;1.00;;;;;;5017707;28;20195;-89
2024/01/09 00:55:10;;;;;;;0.90;0.90;;;-3.80;10.30;;;;;;5016328;28;20231;-86
2024/01/09 00:57:39;;;;;;;1.07;1.07;;;-3.80;1.00;;;;;;5034280;28;20250;-87
2024/01/09 01:00:05;;;;;;;1.00;1.00;;;-3.80;1.00;;;;;;5017873;28;20195;-89
2024/01/09 01:02:32;;;;;;;0.90;0.90;;;-3.80;1.00;;;;;;5017896;28;20184;-88
2024/01/09 01:05:05;;;;;;;1.00;1.00;;;-3.80;1.00;;;;;;5017488;28;20646;-88
2024/01/09 01:07:35;;;;;;;1.10;1.10;;;-3.90;1.00;;;;;;5012962;28;20197;-88
2024/01/09 01:10:02;;;;;;;1.00;1.00;;;-3.80;1.00;;;;;;4996496;28;20205;-86
2024/01/09 01:12:29;;;;;;;1.00;1.00;;;-3.80;1.00;;;;;;4997790;28;20617;-89
2024/01/09 01:14:55;;;;;;;1.00;1.00;;;-3.80;1.00;;;;;;4997687;28;20181;-88
2024/01/09 01:17:20;;;;;;;1.00;1.00;;;-3.90;1.00;;;;;;4997103;28;20228;-87
2024/01/09 01:22:46;;;;;;;0.80;0.80;;;-4.00;1.00;;;;;;4995127;28;20341;-87
2024/01/09 01:25:13;;;;;;;1.00;1.00;;;-3.90;1.00;;;;;;4994120;28;20177;-87
2024/01/09 01:27:39;;;;;;;1.00;1.00;;;-4.00;1.00;;;;;;4995704;28;20209;-86
2024/01/09 01:30:05;;;;;;;0.97;0.97;;;-4.00;1.00;;;;;;4994997;28;20224;-84
2024/01/09 01:32:33;;;;;;;1.00;1.00;;;-4.00;1.00;;;;;;4994878;28;20209;-85
2024/01/09 01:35:01;;;;;;;1.00;1.00;;;-3.90;1.00;;;;;;4995053;28;20196;-88
2024/01/09 01:37:26;;;;;;;0.90;0.90;;;-4.00;1.00;;;;;;4994583;28;20201;-87
2024/01/09 01:39:52;;;;;;;0.90;0.90;;;-4.00;1.00;;;;;;4993350;28;20236;-86
2024/01/09 01:42:17;;;;;;;0.90;0.90;;;-4.00;1.00;;;;;;4994562;28;20655;-87
2024/01/09 01:44:43;;;;;;;1.00;1.00;;;-4.00;1.00;;;;;;4995017;28;20181;-84
2024/01/09 01:47:11;;;;;;;1.00;1.00;;;-4.00;1.00;;;;;;4994247;28;20270;-86
2024/01/09 01:49:37;;;;;;;0.90;0.90;;;-4.10;1.00;;;;;;4994336;28;20270;-88
2024/01/09 01:52:03;;;;;;;1.00;1.00;;;-4.00;1.00;;;;;;4994594;28;20275;-88
2024/01/09 01:54:37;;;;;;;0.90;0.90;;;-4.00;1.00;;;;;;4993674;28;20188;-89
2024/01/09 01:57:04;;;;;;;1.00;1.00;;;-4.00;1.00;;;;;;4994033;28;20213;-84
2024/01/09 01:59:32;;;;;;;1.00;1.00;;;-4.10;1.00;;;;;;4994370;28;20178;-84
2024/01/09 02:02:02;;;;;;;0.90;0.90;;;-4.00;1.00;;;;;;4994189;28;20644;-85
2024/01/09 02:04:28;;;;;;;1.00;1.00;;;-3.30;1.00;;;;;;4994050;28;20189;-86
2024/01/09 02:06:57;;;;;;;1.00;1.00;;;-4.10;1.00;;;;;;4993873;28;20221;-85
2024/01/09 02:09:23;;;;;;;0.90;0.90;;;-4.10;1.00;;;;;;4993818;28;20177;-86
2024/01/09 02:11:49;;;;;;;0.90;0.90;;;-4.10;1.00;;;;;;4994280;28;20215;-86
2024/01/09 02:14:15;;;;;;;0.90;0.90;;;-4.10;1.00;;;;;;4993500;28;20228;-84
2024/01/09 02:16:41;;;;;;;0.90;0.90;;;-4.20;1.00;;;;;;4993525;28;20197;-87
2024/01/09 02:19:12;;;;;;;1.00;1.00;;;-4.20;1.00;;;;;;4994150;28;20177;-86
2024/01/09 02:21:38;;;;;;;1.00;1.00;;;-4.10;1.00;;;;;;4993949;28;20203;-89
2024/01/09 02:24:03;;;;;;;0.90;0.90;;;-4.20;1.00;;;;;;4993007;28;20264;-85
2024/01/09 02:26:38;;;;;;;0.97;0.97;;;-4.20;1.00;;;;;;4995619;28;20691;-86
2024/01/09 02:29:08;;;;;;;0.83;0.83;;;-4.20;1.00;;;;;;4994789;28;20191;-85
2024/01/09 02:31:34;;;;;;;0.90;0.90;;;-4.20;1.00;;;;;;5013117;28;20197;-92
2024/01/09 02:34:03;;;;;;;0.80;0.80;;;-4.20;1.00;;;;;;5003203;28;20185;-84
2024/01/09 02:36:29;;;;;;;1.00;1.00;;;-4.30;1.00;;;;;;4994164;28;20613;-85
2024/01/09 02:38:54;;;;;;;1.00;1.00;;;-4.30;1.00;;;;;;4994044;28;20783;-84
2024/01/09 02:41:20;;;;;;;0.90;0.90;;;-4.30;1.00;;;;;;4993767;28;20177;-87
2024/01/09 02:43:46;;;;;;;0.93;0.93;;;-4.30;1.00;;;;;;4993513;28;20228;-85
2024/01/09 02:46:11;;;;;;;1.00;1.00;;;-4.30;1.00;;;;;;4993736;28;20572;-86
2024/01/09 02:48:37;;;;;;;0.87;0.87;;;-4.30;1.00;;;;;;5013314;28;20226;-84
2024/01/09 02:51:04;;;;;;;1.10;1.10;;;-4.30;1.00;;;;;;5013033;28;20650;-86
2024/01/09 02:53:34;;;;;;;0.93;0.93;;;-4.30;1.00;;;;;;5014484;28;20186;-85
2024/01/09 02:55:59;;;;;;;0.90;0.90;;;-4.30;1.00;;;;;;5014272;28;20192;-89
2024/01/09 02:58:25;;;;;;;1.10;1.10;;;-4.30;1.00;;;;;;5016556;28;20574;-84
2024/01/09 03:00:51;;;;;;;1.00;1.00;;;-4.40;1.00;;;;;;5017085;28;20204;-86
2024/01/09 03:03:16;;;;;;;0.90;0.90;;;-4.30;1.00;;;;;;5015511;28;20234;-86
2024/01/09 03:05:43;;;;;;;1.00;1.00;;;-4.40;1.00;;;;;;5016245;28;20181;-85
2024/01/09 03:08:08;;;;;;;1.10;1.10;;;-4.30;1.00;;;;;;5016366;28;20176;-84
2024/01/09 03:10:35;;;;;;;1.00;1.00;;;-4.30;1.00;;;;;;5016334;28;20220;-90
2024/01/09 03:13:01;;;;;;;1.00;1.00;;;-4.30;1.00;;;;;;5017990;28;20200;-85
2024/01/09 03:15:27;;;;;;;1.00;1.00;;;-4.30;1.00;;;;;;5015846;28;20633;-87
2024/01/09 03:17:52;;;;;;;0.80;0.80;;;-4.30;1.00;;;;;;5015959;28;20203;-88
2024/01/09 03:20:19;;;;;;;0.90;0.90;;;-4.30;1.00;;;;;;5017639;28;20183;-89
2024/01/09 03:22:45;;;;;;;0.80;0.80;;;-4.30;1.00;;;;;;5017809;28;20204;-87
2024/01/09 03:25:11;;;;;;;1.00;1.00;;;-4.40;1.00;;;;;;5017995;28;20585;-89
2024/01/09 03:27:36;;;;;;;1.10;1.10;;;-4.40;1.00;;;;;;5024739;28;20249;-87
2024/01/09 03:30:02;;;;;;;0.90;0.90;;;-4.40;1.00;;;;;;5033766;28;20203;-87
2024/01/09 03:32:28;;;;;;;1.10;1.10;;;-4.40;1.00;;;;;;5030789;28;20192;-84
2024/01/09 03:34:53;;;;;;;0.80;0.80;;;-4.40;1.00;;;;;;5010912;28;20446;-84
2024/01/09 03:37:19;;;;;;;1.00;1.00;;;-4.30;1.00;;;;;;5012579;28;20200;-87
2024/01/09 03:39:45;;;;;;;0.97;0.97;;;-4.30;1.00;;;;;;5013528;28;20590;-84
2024/01/09 03:42:11;;;;;;;1.00;1.00;;;-4.30;1.00;;;;;;5016633;28;20195;-87
2024/01/09 03:44:37;;;;;;;0.90;0.90;;;-4.30;1.00;;;;;;5016357;28;20180;-87
2024/01/09 03:47:02;;;;;;;0.90;0.90;;;-4.30;1.00;;;;;;5001344;28;20247;-85
2024/01/09 03:49:28;;;;;;;0.90;0.90;;;-4.30;1.00;;;;;;4996963;28;20239;-84
2024/01/09 03:51:54;;;;;;;1.00;1.00;;;-4.30;1.00;;;;;;4996882;28;20252;-86
2024/01/09 03:54:19;;;;;;;0.90;0.90;;;-4.30;1.00;;;;;;4996978;28;20173;-85
2024/01/09 03:56:45;;;;;;;1.00;1.00;;;-4.40;1.00;;;;;;4995752;28;20205;-87
2024/01/09 03:59:10;;;;;;;0.97;0.97;;;-4.40;1.00;;;;;;5014789;28;20205;-95
2024/01/09 04:01:39;;;;;;;0.90;0.90;;;-4.40;1.00;;;;;;5010725;28;20185;-87
2024/01/09 04:04:05;;;;;;;0.90;0.90;;;-4.40;1.00;;;;;;5008880;28;20264;-88
2024/01/09 04:06:30;;;;;;;1.10;1.10;;;-4.40;1.00;;;;;;5019327;28;20224;-87
2024/01/09 04:08:56;;;;;;;1.00;1.00;;;-4.40;1.00;;;;;;5018305;28;20177;-86
2024/01/09 04:11:22;;;;;;;0.90;0.90;;;-4.40;1.00;;;;;;5019416;28;20662;-87
2024/01/09 04:13:47;;;;;;;0.90;0.90;;;-4.40;1.00;;;;;;5019112;28;20295;-88
2024/01/09 04:16:13;;;;;;;1.00;1.00;;;-4.40;1.00;;;;;;5017119;28;20200;-88
2024/01/09 04:18:38;;;;;;;1.10;1.10;;;-4.40;1.00;;;;;;5017667;28;20176;-88
2024/01/09 04:21:04;;;;;;;1.00;1.00;;;-4.40;1.00;;;;;;5017966;28;20183;-87
2024/01/09 04:23:30;;;;;;;1.00;1.00;;;-4.40;1.00;;;;;;5016830;28;20673;-88
2024/01/09 04:25:55;;;;;;;1.00;1.00;;;-4.50;1.00;;;;;;5016728;28;20196;-87
2024/01/09 04:28:21;;;;;;;1.00;1.00;;;-4.50;1.00;;;;;;5017511;28;20181;-88
2024/01/09 04:30:46;;;;;;;1.00;1.00;;;-4.50;1.00;;;;;;5016247;28;20212;-88
2024/01/09 04:33:12;;;;;;;0.97;0.97;;;-4.40;1.00;;;;;;5017756;28;20594;-88
2024/01/09 04:35:38;;;;;;;1.00;1.00;;;-4.40;1.00;;;;;;5016896;28;20184;-89
2024/01/09 04:38:03;;;;;;;0.93;0.93;;;-4.40;1.00;;;;;;5015131;28;20181;-89
2024/01/09 04:40:29;;;;;;;0.90;0.90;;;-4.50;1.00;;;;;;5018104;28;20169;-87
2024/01/09 04:42:54;;;;;;;1.10;1.10;;;-4.50;1.00;;;;;;5034518;28;20168;-91
2024/01/09 04:45:20;;;;;;;0.90;0.90;;;-4.50;1.00;;;;;;5038629;28;20175;-86
2024/01/09 04:47:45;;;;;;;1.10;1.10;;;-4.50;1.00;;;;;;5014998;28;20224;-88
2024/01/09 04:50:11;;;;;;;1.00;1.00;;;-4.40;99.90;;;;;;5014534;28;20208;-85
2024/01/09 04:52:37;;;;;;;1.00;1.00;;;-4.00;99.90;;;;;;5018301;28;20385;-87
2024/01/09 04:55:03;;;;;;;1.00;1.00;;;-4.00;1.00;;;;;;5018153;28;20263;-87
2024/01/09 04:57:29;;;;;;;1.03;1.03;;;-4.10;1.00;;;;;;5019637;28;20204;-86
2024/01/09 04:59:54;;;;;;;0.90;0.90;;;-4.10;1.00;;;;;;5019984;28;20181;-87
2024/01/09 05:02:20;;;;;;;1.00;1.00;;;-4.20;1.00;;;;;;5031951;28;20176;-85
2024/01/09 05:04:46;;;;;;;0.90;0.90;;;-4.20;1.00;;;;;;5039408;28;20244;-86
2024/01/09 05:07:11;;;;;;;0.90;0.90;;;-4.20;1.00;;;;;;5038635;28;20200;-87
2024/01/09 05:09:37;;;;;;;0.90;0.90;;;-4.00;1.00;;;;;;5039206;28;20192;-85
2024/01/09 05:12:03;;;;;;;1.00;1.00;;;-4.30;1.00;;;;;;5039296;28;20156;-85
2024/01/09 05:14:29;;;;;;;1.10;1.10;;;-4.30;1.00;;;;;;5025367;28;20288;-86
2024/01/09 05:16:54;;;;;;;1.00;1.00;;;-4.40;1.00;;;;;;5017136;28;20685;-84
2024/01/09 05:19:20;;;;;;;1.10;1.10;;;-4.40;1.00;;;;;;5017087;28;20180;-86
2024/01/09 05:21:46;;;;;;;1.07;1.07;;;-4.40;1.00;;;;;;5017786;28;20176;-85
2024/01/09 05:24:12;;;;;;;1.00;1.00;;;-4.40;1.00;;;;;;5016604;28;20224;-86
2024/01/09 05:26:38;;;;;;;1.10;1.10;;;-4.40;1.00;;;;;;5017043;28;20682;-85
2024/01/09 05:29:04;;;;;;;0.93;0.93;;;-4.40;1.00;;;;;;5015480;28;20203;-87
2024/01/09 05:31:30;;;;;;;1.00;1.00;;;-4.50;1.00;;;;;;5014971;28;20686;-86
2024/01/09 05:33:55;;;;;;;1.00;1.00;;;-4.50;1.00;;;;;;5014839;28;20186;-85
2024/01/09 05:36:22;;;;;;;0.90;0.90;;;-4.60;1.00;;;;;;5014656;28;20205;-86
2024/01/09 05:38:52;;;;;;;0.93;0.93;;;-4.60;1.00;;;;;;5015336;28;20181;-86
2024/01/09 05:41:22;;;;;;;1.00;1.00;;;-4.50;1.00;;;;;;5015355;28;20191;-86
2024/01/09 05:43:51;;;;;;;0.97;0.97;;;-4.50;1.00;;;;;;5015254;28;20270;-85
2024/01/09 05:46:16;;;;;;;1.00;1.00;;;-4.50;1.00;;;;;;5014211;28;20670;-85
2024/01/09 05:48:42;;;;;;;1.10;1.10;;;-4.50;1.00;;;;;;5015337;28;20203;-86
2024/01/09 05:51:09;;;;;;;0.90;0.90;;;-4.50;1.00;;;;;;5014962;28;20204;-85
2024/01/09 05:53:36;;;;;;;0.93;0.93;;;-4.50;1.00;;;;;;5015635;28;20283;-85
2024/01/09 05:56:02;;;;;;;0.93;0.93;;;-4.50;1.00;;;;;;5014443;28;20203;-85
2024/01/09 05:58:28;;;;;;;1.00;1.00;;;-4.50;1.00;;;;;;5037484;28;20183;-88
2024/01/09 06:00:53;;;;;;;1.00;1.00;;;-4.50;1.00;;;;;;5038378;28;20176;-88
2024/01/09 06:03:19;;;;;;;0.97;0.97;;;-4.50;1.00;;;;;;5037668;28;20192;-85
2024/01/09 06:05:44;;;;;;;1.00;1.00;;;-4.60;1.00;;;;;;5043366;28;20190;-84
2024/01/09 06:08:10;;;;;;;0.90;0.90;;;-4.60;1.00;;;;;;5057717;28;20180;-85
2024/01/09 06:10:35;;;;;;;1.00;1.00;;;-4.60;1.00;;;;;;5054534;28;20204;-85
2024/01/09 06:13:02;;;;;;;0.97;0.97;;;-4.50;1.00;;;;;;5054501;28;20223;-85
2024/01/09 06:15:27;;;;;;;0.90;0.90;;;-4.60;1.00;;;;;;5055053;28;20183;-86
2024/01/09 06:17:54;;;;;;;1.00;1.00;;;-4.60;1.00;;;;;;5038034;28;20311;-86
2024/01/09 06:20:19;;;;;;;0.87;0.87;;;-4.60;1.00;;;;;;5038766;28;20275;-87
2024/01/09 06:22:45;;;;;;;1.00;1.00;;;-4.60;1.00;;;;;;5040410;28;20211;-86
2024/01/09 06:25:13;;;;;;;1.10;1.10;;;-4.60;1.00;;;;;;5038880;28;20168;-86
2024/01/09 06:27:39;;;;;;;1.00;1.00;;;-4.60;1.00;;;;;;5035503;28;20245;-86
2024/01/09 06:30:06;;;;;;;0.90;0.90;;;-4.60;1.00;;;;;;5035093;28;20294;-84
2024/01/09 06:32:32;;;;;;;0.80;0.80;;;-4.60;1.00;;;;;;5050596;28;20199;-87
2024/01/09 06:34:58;;;;;;;0.93;0.93;;;-4.50;1.00;;;;;;5046974;28;20191;-87
2024/01/09 06:37:23;;;;;;;1.00;1.00;;;-4.50;1.00;;;;;;5037534;28;20199;-87
2024/01/09 06:39:49;;;;;;;1.00;1.00;;;-4.60;1.00;;;;;;5037928;28;20211;-86
2024/01/09 06:42:15;;;;;;;0.90;0.90;;;-4.60;1.00;;;;;;5036125;28;20175;-87
2024/01/09 06:44:41;;;;;;;1.00;1.00;;;-4.60;1.00;;;;;;5037677;28;20187;-87
2024/01/09 06:47:06;;;;;;;1.00;1.00;;;-4.70;1.00;;;;;;5037325;28;20195;-88
2024/01/09 06:49:33;;;;;;;1.00;1.00;;;-4.70;1.00;;;;;;5036892;28;20184;-87
2024/01/09 06:51:59;;;;;;;0.83;0.83;;;-4.60;1.00;;;;;;5036821;28;20175;-86
2024/01/09 06:54:24;;;;;;;0.90;0.90;;;-4.70;1.00;;;;;;5036262;28;20179;-87
2024/01/09 06:56:50;;;;;;;0.90;0.90;;;-4.70;1.00;;;;;;5035643;28;20291;-86
2024/01/09 06:59:16;;;;;;;1.00;1.00;;;-4.60;1.00;;;;;;5036754;28;20200;-85
2024/01/09 07:01:41;;;;;;;0.90;0.90;;;-4.60;1.00;;;;;;5036343;28;20202;-87
2024/01/09 07:04:07;;;;;;;1.10;1.10;;;-4.60;1.00;;;;;;5036231;28;20172;-87
2024/01/09 07:06:33;;;;;;;1.00;1.00;;;-4.60;1.00;;;;;;5035403;28;20202;-86
2024/01/09 07:08:58;;;;;;;1.00;1.00;;;-4.60;1.00;;;;;;5037259;28;20179;-87
2024/01/09 07:11:24;;;;;;;1.00;1.00;;;-4.60;1.00;;;;;;5037802;28;20208;-87
2024/01/09 07:13:49;;;;;;;0.90;0.90;;;-4.60;1.00;;;;;;5048778;28;20214;-85
2024/01/09 07:16:15;;;;;;;1.00;1.00;;;-4.60;1.00;;;;;;5051374;28;20200;-85
2024/01/09 07:18:40;;;;;;;0.97;0.97;;;-4.50;1.00;;;;;;5043274;28;20186;-87
2024/01/09 07:21:06;;;;;;;0.97;0.97;;;-4.60;1.00;;;;;;5039132;28;20539;-86
2024/01/09 07:23:31;;;;;;;1.00;1.00;;;-4.60;1.00;;;;;;5037343;28;20206;-86
2024/01/09 07:25:58;;;;;;;0.90;0.90;;;-4.60;1.00;;;;;;5019051;28;20219;-85
2024/01/09 07:28:24;;;;;;;1.00;1.00;;;-4.50;1.00;;;;;;5017491;28;20180;-86
2024/01/09 07:30:52;;;;;;;1.00;1.00;;;-4.50;1.00;;;;;;5018664;28;20573;-86
2024/01/09 07:33:18;;;;;;;0.90;0.90;;;-4.50;1.00;;;;;;5020597;28;20165;-86
2024/01/09 07:35:43;;;;;;;1.00;1.00;;;-4.50;1.00;;;;;;5016630;28;20184;-85
2024/01/09 07:38:09;;;;;;;0.90;0.90;;;-4.40;1.00;;;;;;5017346;28;20584;-86
2024/01/09 07:40:34;;;;;;;1.10;1.10;;;-4.30;1.00;;;;;;5017573;28;20179;-86
2024/01/09 07:43:00;;;;;;;0.90;0.90;;;-4.00;1.00;;;;;;5018654;28;20173;-86
2024/01/09 07:45:28;;;;;;;0.90;0.90;;;-3.70;1.00;;;;;;5018869;28;20173;-84
2024/01/09 07:47:55;;;;;;;1.00;1.00;;;-3.30;1.00;;;;;;5018044;28;20262;-87
2024/01/09 07:50:21;;;;;;;1.00;1.00;;;-2.80;1.00;;;;;;5018221;28;20220;-86
2024/01/09 07:52:47;;;;;;;1.10;1.10;;;-2.20;1.00;;;;;;5018420;28;20172;-86
2024/01/09 07:55:13;;;;;;;0.97;0.97;;;-1.60;1.00;;;;;;5013797;28;20195;-86
2024/01/09 07:57:39;;;;;;;0.80;0.80;;;-1.30;1.00;;;;;;5017566;28;20559;-86
2024/01/09 08:00:05;;;;;;;0.90;0.90;;;-1.00;1.00;;;;;;5017407;28;20183;-85
2024/01/09 08:02:31;;;;;;;0.90;0.90;;;-0.80;1.00;;;;;;5017359;28;20672;-86
2024/01/09 08:04:56;;;;;;;0.83;0.83;;;-0.50;1.00;;;;;;5017280;28;20181;-86
2024/01/09 08:07:22;;;;;;;1.00;1.00;;;-0.10;1.00;;;;;;5017678;28;20279;-86
2024/01/09 08:09:47;;;;;;;0.90;0.90;;;0.50;1.00;;;;;;5019263;28;20207;-86
2024/01/09 08:12:13;;;;;;;0.90;0.90;;;0.90;1.00;;;;;;5017161;28;20177;-86
2024/01/09 08:14:38;;;;;;;0.90;0.90;;;0.80;1.00;;;;;;5017496;28;20195;-86
2024/01/09 08:17:04;;;;;;;0.90;0.90;;;0.70;1.00;;;;;;5018633;28;20201;-86
2024/01/09 08:19:29;;;;;;;0.90;0.90;;;0.90;1.00;;;;;;5018497;28;20180;-84
2024/01/09 08:21:55;;;;;;;0.80;0.80;;;1.00;1.00;;;;;;5017409;28;20263;-87
2024/01/09 08:24:22;;;;;;;0.83;0.83;;;1.10;1.00;;;;;;5031486;28;20177;-86
2024/01/09 08:26:48;;;;;;;0.90;0.90;;;0.90;1.00;;;;;;5034498;28;20201;-85
2024/01/09 08:29:17;;;;;;;0.90;0.90;;;1.10;1.00;;;;;;5036319;28;20191;-86
2024/01/09 08:31:47;;;;;;;0.90;0.90;;;1.20;1.00;;;;;;5035332;28;20208;-85
2024/01/09 08:34:14;;;;;;;0.90;0.90;;;1.30;1.00;;;;;;5036747;28;20176;-85
2024/01/09 08:36:43;;;;;;;0.90;0.90;;;1.20;1.00;;;;;;5037380;28;20212;-86
2024/01/09 08:39:10;;;;;;;1.00;1.00;;;1.30;1.00;;;;;;5037267;28;20176;-84
2024/01/09 08:41:36;;;;;;;0.90;0.90;;;1.50;1.00;;;;;;5029922;28;20177;-86
2024/01/09 08:44:02;;;;;;;0.87;0.87;;;1.60;1.00;;;;;;5020473;28;20523;-87
2024/01/09 08:46:27;;;;;;;0.90;0.90;;;1.50;1.00;;;;;;5027425;28;20219;-84
2024/01/09 08:48:53;;;;;;;0.93;0.93;;;1.10;1.00;;;;;;5039431;28;20168;-84
2024/01/09 08:51:19;;;;;;;0.80;0.80;;;0.80;1.00;;;;;;5039322;28;20215;-84
2024/01/09 08:53:44;;;;;;;1.00;1.00;;;0.50;1.00;;;;;;5038706;28;20196;-85
2024/01/09 08:56:10;;;;;;;1.00;1.00;;;0.50;1.00;;;;;;5037765;28;20218;-86
2024/01/09 08:58:36;;;;;;;0.90;0.90;;;0.80;1.00;;;;;;5033255;28;20475;-87
2024/01/09 09:01:01;;;;;;;0.90;0.90;;;0.70;1.00;;;;;;5035699;28;20234;-87
2024/01/09 09:03:27;;;;;;;0.80;0.80;;;0.40;1.00;;;;;;5027996;28;20179;-85
2024/01/09 09:05:53;;;;;;;0.90;0.90;;;0.50;1.00;;;;;;5027782;28;20196;-86
2024/01/09 09:08:21;;;;;;;0.83;0.83;;;0.80;1.00;;;;;;5021135;28;20204;-85
2024/01/09 09:10:46;;;;;;;1.00;1.00;;;1.20;1.00;;;;;;5018035;28;20701;-86
2024/01/09 09:13:12;;;;;;;0.80;0.80;;;1.50;1.00;;;;;;5020229;28;20215;-86
2024/01/09 09:15:38;;;;;;;0.90;0.90;;;1.70;1.00;;;;;;5018402;28;20184;-86
2024/01/09 09:18:04;;;;;;;1.00;1.00;;;1.00;1.00;;;;;;5018871;28;20180;-86
2024/01/09 09:20:29;;;;;;;1.00;1.00;;;1.20;1.00;;;;;;5019178;28;20180;-86
2024/01/09 09:22:55;;;;;;;1.00;1.00;;;1.10;1.00;;;;;;5017537;28;20207;-86
2024/01/09 09:25:20;;;;;;;1.00;1.00;;;1.10;1.00;;;;;;5019547;28;20173;-85
2024/01/09 09:27:46;;;;;;;0.90;0.90;;;1.60;1.00;;;;;;5017256;28;20643;-86
2024/01/09 09:30:12;;;;;;;0.90;0.90;;;2.00;1.00;;;;;;5017852;28;20215;-86
2024/01/09 09:32:39;;;;;;;0.80;0.80;;;2.10;1.00;;;;;;5016828;28;20322;-86
2024/01/09 09:35:04;;;;;;;0.80;0.80;;;2.30;1.00;;;;;;5018279;28;20703;-86
2024/01/09 09:37:30;;;;;;;1.00;1.00;;;2.80;1.00;;;;;;5017323;28;20275;-87
2024/01/09 09:39:55;;;;;;;0.87;0.87;;;2.90;1.00;;;;;;5016654;28;20176;-86
2024/01/09 09:42:22;;;;;;;0.80;0.80;;;2.70;1.00;;;;;;5017939;28;20184;-86
2024/01/09 09:44:54;;;;;;;0.80;0.80;;;3.40;1.00;;;;;;5027051;28;20265;-85
2024/01/09 09:47:21;;;;;;;0.80;0.80;;;4.00;1.00;;;;;;5035134;28;20208;-86
2024/01/09 09:49:49;;;;;;;0.90;0.90;;;3.80;1.00;;;;;;5036571;28;20219;-86
2024/01/09 09:52:14;;;;;;;0.77;0.77;;;3.70;1.00;;;;;;5036763;28;20236;-88
2024/01/09 09:54:41;;;;;;;0.80;0.80;;;3.40;1.00;;;;;;5036823;28;20203;-85
2024/01/09 09:57:08;;;;;;;0.80;0.80;;;2.70;1.00;;;;;;5034906;28;20199;-85
2024/01/09 09:59:37;;;;;;;0.80;0.80;;;1.80;1.00;;;;;;5036042;28;20176;-86
2024/01/09 10:02:07;;;;;;;1.00;1.00;;;2.40;1.00;;;;;;5036193;28;20180;-85
2024/01/09 10:04:46;;;;;;;0.73;0.73;;;3.40;1.00;;;;;;5030776;28;20227;-87
2024/01/09 10:07:16;;;;;;;0.80;0.80;;;4.20;1.00;;;;;;5020527;28;20685;-87
2024/01/09 10:09:49;;;;;;;0.60;0.60;;;4.70;1.00;;;;;;5020495;28;20263;-87
2024/01/09 10:12:22;;;;;;;0.80;0.80;;;3.60;1.00;;;;;;5021950;28;20199;-87
2024/01/09 10:15:11;;;;;;;0.70;0.70;;;3.30;1.00;;;;;;5019805;28;20184;-86
2024/01/09 10:17:41;;;;;;;0.70;0.70;;;4.00;1.00;;;;;;5019970;28;20216;-87
2024/01/09 10:20:11;;;;;;;0.70;0.70;;;4.70;1.00;;;;;;5019364;28;20181;-88
2024/01/09 10:22:38;;;;;;;0.67;0.67;;;4.90;1.00;;;;;;5018222;28;20188;-87
2024/01/09 10:25:13;;;;;;;0.60;0.60;;;5.10;1.00;;;;;;5019390;28;20188;-86
2024/01/09 10:27:40;;;;;;;0.70;0.70;;;5.00;1.00;;;;;;5015454;28;20207;-88
2024/01/09 10:30:09;;;;;;;0.70;0.70;;;5.10;1.00;;;;;;5015745;28;20581;-87
2024/01/09 10:32:38;;;;;;;0.70;0.70;;;5.30;1.00;;;;;;5017443;28;20183;-86
2024/01/09 10:35:04;;;;;;;0.70;0.70;;;4.80;1.00;;;;;;5025660;28;20207;-87
2024/01/09 10:37:30;;;;;;;0.70;0.70;;;4.80;1.00;;;;;;5031402;28;20224;-87
2024/01/09 10:39:57;;;;;;;0.80;0.80;;;4.40;1.00;;;;;;5018648;28;20203;-87
2024/01/09 10:42:23;;;;;;;0.70;0.70;;;4.10;1.00;;;;;;5017239;28;20184;-86
2024/01/09 10:44:50;;;;;;;0.77;0.77;;;3.80;1.00;;;;;;5018631;28;20189;-87
2024/01/09 10:47:17;;;;;;;0.70;0.70;;;4.30;1.00;;;;;;5030114;28;20223;-86
2024/01/09 10:49:44;;;;;;;0.73;0.73;;;4.60;1.00;;;;;;5017593;28;20189;-87
2024/01/09 10:52:19;;;;;;;0.70;0.70;;;4.30;1.00;;;;;;5018961;28;20161;-86
2024/01/09 10:54:45;;;;;;;0.70;0.70;;;5.10;1.00;;;;;;5017045;28;20180;-86
2024/01/09 10:57:15;;;;;;;0.80;0.80;;;5.30;1.00;;;;;;5018615;28;20694;-87
2024/01/09 10:59:43;;;;;;;0.80;0.80;;;5.20;1.00;;;;;;5028640;28;20173;-85
2024/01/09 11:02:16;;;;;;;0.70;0.70;;;4.30;1.00;;;;;;5028963;28;20254;-87
2024/01/09 11:04:45;;;;;;;0.90;0.90;;;3.50;1.00;;;;;;5017228;28;20176;-84
2024/01/09 11:07:15;;;;;;;0.80;0.80;;;2.70;1.00;;;;;;5016364;28;20677;-86
2024/01/09 11:09:43;;;;;;;0.90;0.90;;;2.70;1.00;;;;;;5017079;28;20203;-86
2024/01/09 11:12:21;;;;;;;0.73;0.73;;;3.20;1.00;;;;;;5016879;28;20184;-88
2024/01/09 11:14:55;;;;;;;0.80;0.80;;;3.60;1.00;;;;;;5018256;28;20222;-86
2024/01/09 11:17:22;;;;;;;0.80;0.80;;;3.60;1.00;;;;;;5016470;28;20200;-87
2024/01/09 11:19:47;;;;;;;0.70;0.70;;;3.90;1.00;;;;;;5018029;28;20199;-86
2024/01/09 11:22:14;;;;;;;0.70;0.70;;;4.20;1.00;;;;;;5020305;28;20658;-87
2024/01/09 11:24:40;;;;;;;0.80;0.80;;;4.50;1.00;;;;;;5060946;22;20161;-87
2024/01/09 11:27:11;;;;;;;0.80;0.80;;;4.50;1.00;;;;;;5046200;28;20234;-87
2024/01/09 11:29:56;;;;;;;0.70;0.70;;;4.70;1.00;;;;;;5056028;28;20180;-86
2024/01/09 11:32:30;;;;;;;0.70;0.70;;;5.50;1.00;;;;;;5056611;28;20180;-86
2024/01/09 11:35:16;;;;;;;0.70;0.70;;;6.10;1.00;;;;;;5056013;28;20187;-86
2024/01/09 11:37:45;;;;;;;0.80;0.80;;;5.70;1.00;;;;;;5051698;28;20185;-85
2024/01/09 11:40:12;;;;;;;0.83;0.83;;;5.20;1.00;;;;;;5043285;28;20267;-87
2024/01/09 11:42:42;;;;;;;0.77;0.77;;;4.70;1.00;;;;;;5039665;28;20179;-87
2024/01/09 11:45:08;;;;;;;0.80;0.80;;;4.20;1.00;;;;;;5037287;28;20176;-86
2024/01/09 11:47:40;;;;;;;0.90;0.90;;;4.00;1.00;;;;;;5035920;28;20572;-86
2024/01/09 11:50:07;;;;;;;0.80;0.80;;;3.20;1.00;;;;;;5036769;28;20226;-86
2024/01/09 11:52:34;;;;;;;0.80;0.80;;;3.00;1.00;;;;;;5038915;28;20173;-86
2024/01/09 11:55:00;;;;;;;0.90;0.90;;;3.30;1.00;;;;;;5037019;28;20175;-87
2024/01/09 11:57:26;;;;;;;0.90;0.90;;;3.50;1.00;;;;;;5036547;28;20424;-87
2024/01/09 11:59:55;;;;;;;0.90;0.90;;;3.30;1.00;;;;;;5039057;28;20258;-87
2024/01/09 12:02:21;;;;;;;0.90;0.90;;;3.20;1.00;;;;;;5039351;28;20617;-88
2024/01/09 12:04:47;;;;;;;0.90;0.90;;;3.00;1.00;;;;;;5040326;28;20198;-87
2024/01/09 12:07:17;;;;;;;0.90;0.90;;;3.00;1.00;;;;;;5039732;28;20203;-84
2024/01/09 12:09:44;;;;;;;1.00;1.00;;;3.50;1.00;;;;;;5039876;28;20578;-86
2024/01/09 12:12:10;;;;;;;0.90;0.90;;;2.80;1.00;;;;;;5040159;28;20172;-88
2024/01/09 12:14:36;;;;;;;0.90;0.90;;;2.70;1.00;;;;;;5039997;28;20257;-88
2024/01/09 12:17:18;;;;;;;0.83;0.83;;;2.80;1.00;;;;;;5038896;28;20200;-88
2024/01/09 12:19:44;;;;;;;0.93;0.93;;;2.60;1.00;;;;;;5036891;28;20211;-87
2024/01/09 12:22:10;;;;;;;1.03;1.03;;;2.40;1.00;;;;;;5038466;28;20183;-87
2024/01/09 12:24:35;;;;;;;0.90;0.90;;;2.40;1.00;;;;;;5039550;28;20176;-87
2024/01/09 12:27:01;;;;;;;1.00;1.00;;;2.20;1.00;;;;;;5038895;28;20200;-87
2024/01/09 12:29:27;;;;;;;0.90;0.90;;;2.10;1.00;;;;;;5041938;28;20191;-87
2024/01/09 12:31:53;;;;;;;1.07;1.07;;;2.40;1.00;;;;;;5059597;28;20267;-85
2024/01/09 12:34:19;;;;;;;0.90;0.90;;;2.70;1.00;;;;;;5059540;28;20194;-87
2024/01/09 12:36:45;;;;;;;0.90;0.90;;;2.70;1.00;;;;;;5046163;28;20219;-86
2024/01/09 12:39:15;;;;;;;0.90;0.90;;;2.90;1.00;;;;;;5072338;28;20242;-90
2024/01/09 12:41:43;;;;;;;1.00;1.00;;;3.00;1.00;;;;;;5092185;22;20215;-91
2024/01/09 12:44:12;;;;;;;0.97;0.97;;;2.80;1.00;;;;;;5079202;28;20201;-94
2024/01/09 12:46:43;;;;;;;0.87;0.87;;;2.70;1.00;;;;;;5077258;28;20279;-92
2024/01/09 12:49:08;;;;;;;0.80;0.80;;;2.80;1.00;;;;;;5079342;28;20191;-89
2024/01/09 12:51:35;;;;;;;0.90;0.90;;;3.20;1.00;;;;;;5064580;28;20203;-89
2024/01/09 12:54:00;;;;;;;0.80;0.80;;;3.20;1.00;;;;;;5063648;28;20214;-90
2024/01/09 12:56:26;;;;;;;1.00;1.00;;;3.80;1.00;;;;;;5055284;28;20696;-88
2024/01/09 12:58:52;;;;;;;0.80;0.80;;;4.40;1.00;;;;;;5048634;28;20665;-92
2024/01/09 13:01:19;;;;;;;0.80;0.80;;;4.60;1.00;;;;;;5047453;28;20175;-90